sensor_id;sensor_type;location;lat;lon;timestamp;P1;durP1;ratioP1;P2;durP2;ratioP2
74920;SDS011;63483;47.384;8.860;2022-11-14T00:01:54;7.83;;;4.10;;
74920;SDS011;63483;47.384;8.860;2022-11-14T00:04:20;5.37;;;2.57;;
74920;SDS011;63483;47.384;8.860;2022-11-14T00:06:45;5.50;;;3.40;;
74920;SDS011;63483;47.384;8.860;2022-11-14T00:09:10;4.47;;;2.85;;
74920;SDS011;63483;47.384;8.860;2022-11-14T00:11:36;5.37;;;3.40;;
74920;SDS011;63483;47.384;8.860;2022-11-14T00:14:01;6.50;;;2.93;;
74920;SDS011;63483;47.384;8.860;2022-11-14T00:16:26;5.40;;;2.97;;
74920;SDS011;63483;47.384;8.860;2022-11-14T00:18:52;7.17;;;3.17;;
74920;SDS011;63483;47.384;8.860;2022-11-14T00:21:17;6.03;;;3.40;;
74920;SDS011;63483;47.384;8.860;2022-11-14T00:23:43;5.33;;;3.33;;
74920;SDS011;63483;47.384;8.860;2022-11-14T00:26:08;5.85;;;3.28;;
74920;SDS011;63483;47.384;8.860;2022-11-14T00:28:34;4.47;;;3.23;;
74920;SDS011;63483;47.384;8.860;2022-11-14T00:30:59;5.70;;;2.53;;
74920;SDS011;63483;47.384;8.860;2022-11-14T00:33:24;6.40;;;3.30;;
74920;SDS011;63483;47.384;8.860;2022-11-14T00:35:51;5.97;;;3.83;;
74920;SDS011;63483;47.384;8.860;2022-11-14T00:38:17;5.03;;;2.78;;
74920;SDS011;63483;47.384;8.860;2022-11-14T00:40:42;5.97;;;3.10;;
74920;SDS011;63483;47.384;8.860;2022-11-14T00:43:08;4.10;;;2.60;;
74920;SDS011;63483;47.384;8.860;2022-11-14T00:45:33;4.73;;;3.07;;
74920;SDS011;63483;47.384;8.860;2022-11-14T00:47:58;4.47;;;2.80;;
74920;SDS011;63483;47.384;8.860;2022-11-14T00:50:24;5.23;;;3.20;;
74920;SDS011;63483;47.384;8.860;2022-11-14T00:52:49;4.10;;;2.80;;
74920;SDS011;63483;47.384;8.860;2022-11-14T00:55:14;4.43;;;3.10;;
74920;SDS011;63483;47.384;8.860;2022-11-14T00:57:39;3.97;;;3.00;;
74920;SDS011;63483;47.384;8.860;2022-11-14T01:00:05;4.63;;;3.10;;
74920;SDS011;63483;47.384;8.860;2022-11-14T01:02:31;5.57;;;3.63;;
74920;SDS011;63483;47.384;8.860;2022-11-14T01:04:56;4.80;;;3.33;;
74920;SDS011;63483;47.384;8.860;2022-11-14T01:07:22;5.60;;;3.45;;
74920;SDS011;63483;47.384;8.860;2022-11-14T01:09:47;5.23;;;4.03;;
74920;SDS011;63483;47.384;8.860;2022-11-14T01:12:12;9.47;;;3.80;;
74920;SDS011;63483;47.384;8.860;2022-11-14T01:14:38;5.20;;;3.70;;
74920;SDS011;63483;47.384;8.860;2022-11-14T01:17:05;5.40;;;3.13;;
74920;SDS011;63483;47.384;8.860;2022-11-14T01:19:30;4.83;;;3.10;;
74920;SDS011;63483;47.384;8.860;2022-11-14T01:21:56;8.17;;;3.37;;
74920;SDS011;63483;47.384;8.860;2022-11-14T01:24:21;4.80;;;3.17;;
74920;SDS011;63483;47.384;8.860;2022-11-14T01:26:46;4.33;;;2.90;;
74920;SDS011;63483;47.384;8.860;2022-11-14T01:29:12;5.90;;;3.37;;
74920;SDS011;63483;47.384;8.860;2022-11-14T01:31:37;4.27;;;3.10;;
74920;SDS011;63483;47.384;8.860;2022-11-14T01:34:03;6.03;;;3.30;;
74920;SDS011;63483;47.384;8.860;2022-11-14T01:36:28;4.23;;;2.70;;
74920;SDS011;63483;47.384;8.860;2022-11-14T01:38:53;4.18;;;2.88;;
74920;SDS011;63483;47.384;8.860;2022-11-14T01:41:19;4.87;;;2.93;;
74920;SDS011;63483;47.384;8.860;2022-11-14T01:43:45;4.43;;;2.97;;
74920;SDS011;63483;47.384;8.860;2022-11-14T01:46:13;4.50;;;3.27;;
74920;SDS011;63483;47.384;8.860;2022-11-14T01:48:46;4.43;;;2.63;;
74920;SDS011;63483;47.384;8.860;2022-11-14T01:53:52;4.65;;;3.03;;
74920;SDS011;63483;47.384;8.860;2022-11-14T01:56:21;5.07;;;3.10;;
74920;SDS011;63483;47.384;8.860;2022-11-14T01:58:53;4.53;;;2.93;;
74920;SDS011;63483;47.384;8.860;2022-11-14T02:01:24;4.80;;;2.90;;
74920;SDS011;63483;47.384;8.860;2022-11-14T02:03:52;5.63;;;3.10;;
74920;SDS011;63483;47.384;8.860;2022-11-14T02:06:20;4.68;;;3.10;;
74920;SDS011;63483;47.384;8.860;2022-11-14T02:08:48;4.63;;;2.88;;
74920;SDS011;63483;47.384;8.860;2022-11-14T02:11:16;5.17;;;3.13;;
74920;SDS011;63483;47.384;8.860;2022-11-14T02:13:41;5.60;;;2.93;;
74920;SDS011;63483;47.384;8.860;2022-11-14T02:16:06;6.80;;;3.67;;
74920;SDS011;63483;47.384;8.860;2022-11-14T02:18:33;4.70;;;2.63;;
74920;SDS011;63483;47.384;8.860;2022-11-14T02:20:58;5.15;;;3.00;;
74920;SDS011;63483;47.384;8.860;2022-11-14T02:23:24;5.20;;;2.53;;
74920;SDS011;63483;47.384;8.860;2022-11-14T02:25:51;4.63;;;2.73;;
74920;SDS011;63483;47.384;8.860;2022-11-14T02:28:16;8.57;;;3.08;;
74920;SDS011;63483;47.384;8.860;2022-11-14T02:30:44;5.10;;;2.87;;
74920;SDS011;63483;47.384;8.860;2022-11-14T02:33:10;5.57;;;3.17;;
74920;SDS011;63483;47.384;8.860;2022-11-14T02:35:35;5.20;;;2.80;;
74920;SDS011;63483;47.384;8.860;2022-11-14T02:38:00;4.90;;;3.30;;
74920;SDS011;63483;47.384;8.860;2022-11-14T02:40:25;5.27;;;2.90;;
74920;SDS011;63483;47.384;8.860;2022-11-14T02:42:51;5.47;;;3.77;;
74920;SDS011;63483;47.384;8.860;2022-11-14T02:45:16;5.80;;;3.47;;
74920;SDS011;63483;47.384;8.860;2022-11-14T02:47:42;6.67;;;3.90;;
74920;SDS011;63483;47.384;8.860;2022-11-14T02:50:07;6.32;;;3.25;;
74920;SDS011;63483;47.384;8.860;2022-11-14T02:52:33;6.37;;;3.77;;
74920;SDS011;63483;47.384;8.860;2022-11-14T02:54:58;5.30;;;3.00;;
74920;SDS011;63483;47.384;8.860;2022-11-14T02:57:23;5.70;;;3.57;;
74920;SDS011;63483;47.384;8.860;2022-11-14T02:59:48;3.80;;;2.43;;
74920;SDS011;63483;47.384;8.860;2022-11-14T03:02:14;5.33;;;3.30;;
74920;SDS011;63483;47.384;8.860;2022-11-14T03:04:39;5.80;;;2.95;;
74920;SDS011;63483;47.384;8.860;2022-11-14T03:07:05;5.60;;;3.37;;
74920;SDS011;63483;47.384;8.860;2022-11-14T03:09:30;5.60;;;3.00;;
74920;SDS011;63483;47.384;8.860;2022-11-14T03:11:55;5.67;;;3.60;;
74920;SDS011;63483;47.384;8.860;2022-11-14T03:14:20;7.00;;;4.20;;
74920;SDS011;63483;47.384;8.860;2022-11-14T03:16:46;6.17;;;3.37;;
74920;SDS011;63483;47.384;8.860;2022-11-14T03:19:11;5.83;;;4.00;;
74920;SDS011;63483;47.384;8.860;2022-11-14T03:21:37;6.57;;;3.60;;
74920;SDS011;63483;47.384;8.860;2022-11-14T03:24:02;6.97;;;3.40;;
74920;SDS011;63483;47.384;8.860;2022-11-14T03:26:28;8.27;;;3.83;;
74920;SDS011;63483;47.384;8.860;2022-11-14T03:28:53;5.70;;;3.73;;
74920;SDS011;63483;47.384;8.860;2022-11-14T03:31:21;6.18;;;3.80;;
74920;SDS011;63483;47.384;8.860;2022-11-14T03:33:47;5.90;;;3.60;;
74920;SDS011;63483;47.384;8.860;2022-11-14T03:36:12;6.23;;;3.27;;
74920;SDS011;63483;47.384;8.860;2022-11-14T03:38:37;5.50;;;3.57;;
74920;SDS011;63483;47.384;8.860;2022-11-14T03:41:03;6.10;;;3.57;;
74920;SDS011;63483;47.384;8.860;2022-11-14T03:43:29;6.50;;;3.43;;
74920;SDS011;63483;47.384;8.860;2022-11-14T03:45:59;4.90;;;2.80;;
74920;SDS011;63483;47.384;8.860;2022-11-14T03:48:27;6.28;;;2.75;;
74920;SDS011;63483;47.384;8.860;2022-11-14T03:50:53;4.85;;;3.30;;
74920;SDS011;63483;47.384;8.860;2022-11-14T03:53:18;5.23;;;3.73;;
74920;SDS011;63483;47.384;8.860;2022-11-14T03:55:44;4.60;;;3.00;;
74920;SDS011;63483;47.384;8.860;2022-11-14T03:58:09;4.73;;;2.97;;
74920;SDS011;63483;47.384;8.860;2022-11-14T04:00:35;6.73;;;3.40;;
74920;SDS011;63483;47.384;8.860;2022-11-14T04:03:00;4.65;;;2.83;;
74920;SDS011;63483;47.384;8.860;2022-11-14T04:05:25;4.87;;;2.93;;
74920;SDS011;63483;47.384;8.860;2022-11-14T04:07:51;4.67;;;2.63;;
74920;SDS011;63483;47.384;8.860;2022-11-14T04:10:16;5.63;;;3.33;;
74920;SDS011;63483;47.384;8.860;2022-11-14T04:12:46;5.10;;;3.10;;
74920;SDS011;63483;47.384;8.860;2022-11-14T04:15:15;4.72;;;2.85;;
74920;SDS011;63483;47.384;8.860;2022-11-14T04:17:41;6.90;;;3.33;;
74920;SDS011;63483;47.384;8.860;2022-11-14T04:20:07;5.00;;;2.87;;
74920;SDS011;63483;47.384;8.860;2022-11-14T04:22:33;4.20;;;2.58;;
74920;SDS011;63483;47.384;8.860;2022-11-14T04:24:59;5.27;;;2.90;;
74920;SDS011;63483;47.384;8.860;2022-11-14T04:27:24;5.30;;;3.57;;
74920;SDS011;63483;47.384;8.860;2022-11-14T04:29:49;6.20;;;4.23;;
74920;SDS011;63483;47.384;8.860;2022-11-14T04:32:15;7.70;;;4.17;;
74920;SDS011;63483;47.384;8.860;2022-11-14T04:34:40;6.20;;;3.05;;
74920;SDS011;63483;47.384;8.860;2022-11-14T04:37:05;6.23;;;3.47;;
74920;SDS011;63483;47.384;8.860;2022-11-14T04:39:30;6.97;;;4.33;;
74920;SDS011;63483;47.384;8.860;2022-11-14T04:41:56;7.23;;;4.83;;
74920;SDS011;63483;47.384;8.860;2022-11-14T04:44:21;6.87;;;3.77;;
74920;SDS011;63483;47.384;8.860;2022-11-14T04:46:46;6.53;;;3.90;;
74920;SDS011;63483;47.384;8.860;2022-11-14T04:49:12;5.17;;;3.00;;
74920;SDS011;63483;47.384;8.860;2022-11-14T04:51:37;5.63;;;3.17;;
74920;SDS011;63483;47.384;8.860;2022-11-14T04:54:02;6.10;;;3.63;;
74920;SDS011;63483;47.384;8.860;2022-11-14T04:56:28;6.28;;;3.67;;
74920;SDS011;63483;47.384;8.860;2022-11-14T04:58:53;7.07;;;3.97;;
74920;SDS011;63483;47.384;8.860;2022-11-14T05:01:19;5.60;;;3.37;;
74920;SDS011;63483;47.384;8.860;2022-11-14T05:03:44;6.43;;;3.70;;
74920;SDS011;63483;47.384;8.860;2022-11-14T05:06:09;5.83;;;3.80;;
74920;SDS011;63483;47.384;8.860;2022-11-14T05:08:35;6.70;;;4.60;;
74920;SDS011;63483;47.384;8.860;2022-11-14T05:11:00;7.30;;;4.20;;
74920;SDS011;63483;47.384;8.860;2022-11-14T05:13:26;7.63;;;3.90;;
74920;SDS011;63483;47.384;8.860;2022-11-14T05:15:51;6.40;;;3.97;;
74920;SDS011;63483;47.384;8.860;2022-11-14T05:18:16;5.63;;;3.67;;
74920;SDS011;63483;47.384;8.860;2022-11-14T05:20:42;5.82;;;3.42;;
74920;SDS011;63483;47.384;8.860;2022-11-14T05:23:21;6.10;;;4.00;;
74920;SDS011;63483;47.384;8.860;2022-11-14T05:25:57;6.90;;;4.22;;
74920;SDS011;63483;47.384;8.860;2022-11-14T05:28:25;5.93;;;3.97;;
74920;SDS011;63483;47.384;8.860;2022-11-14T05:30:50;5.87;;;4.53;;
74920;SDS011;63483;47.384;8.860;2022-11-14T05:33:16;6.60;;;3.83;;
74920;SDS011;63483;47.384;8.860;2022-11-14T05:35:41;8.70;;;4.50;;
74920;SDS011;63483;47.384;8.860;2022-11-14T05:38:06;7.13;;;3.80;;
74920;SDS011;63483;47.384;8.860;2022-11-14T05:40:32;5.20;;;3.80;;
74920;SDS011;63483;47.384;8.860;2022-11-14T05:42:57;7.03;;;3.60;;
74920;SDS011;63483;47.384;8.860;2022-11-14T05:45:22;6.07;;;4.20;;
74920;SDS011;63483;47.384;8.860;2022-11-14T05:47:48;6.93;;;3.60;;
74920;SDS011;63483;47.384;8.860;2022-11-14T05:50:13;6.40;;;3.73;;
74920;SDS011;63483;47.384;8.860;2022-11-14T05:52:40;6.27;;;3.53;;
74920;SDS011;63483;47.384;8.860;2022-11-14T05:55:05;6.88;;;3.55;;
74920;SDS011;63483;47.384;8.860;2022-11-14T05:57:31;7.73;;;3.93;;
74920;SDS011;63483;47.384;8.860;2022-11-14T05:59:56;5.37;;;3.60;;
74920;SDS011;63483;47.384;8.860;2022-11-14T06:02:22;5.73;;;4.00;;
74920;SDS011;63483;47.384;8.860;2022-11-14T06:04:47;6.70;;;4.32;;
74920;SDS011;63483;47.384;8.860;2022-11-14T06:07:12;5.67;;;4.00;;
74920;SDS011;63483;47.384;8.860;2022-11-14T06:09:38;4.83;;;3.20;;
74920;SDS011;63483;47.384;8.860;2022-11-14T06:12:03;7.80;;;5.30;;
74920;SDS011;63483;47.384;8.860;2022-11-14T06:14:31;7.40;;;4.43;;
74920;SDS011;63483;47.384;8.860;2022-11-14T06:16:57;6.67;;;4.27;;
74920;SDS011;63483;47.384;8.860;2022-11-14T06:19:22;6.03;;;3.97;;
74920;SDS011;63483;47.384;8.860;2022-11-14T06:21:47;8.33;;;4.37;;
74920;SDS011;63483;47.384;8.860;2022-11-14T06:24:13;7.77;;;3.93;;
74920;SDS011;63483;47.384;8.860;2022-11-14T06:26:38;6.27;;;4.07;;
74920;SDS011;63483;47.384;8.860;2022-11-14T06:29:03;8.07;;;3.65;;
74920;SDS011;63483;47.384;8.860;2022-11-14T06:31:29;8.33;;;3.87;;
74920;SDS011;63483;47.384;8.860;2022-11-14T06:33:54;6.50;;;3.27;;
74920;SDS011;63483;47.384;8.860;2022-11-14T06:36:20;5.72;;;3.20;;
74920;SDS011;63483;47.384;8.860;2022-11-14T06:38:46;6.07;;;3.40;;
74920;SDS011;63483;47.384;8.860;2022-11-14T06:41:12;5.13;;;3.47;;
74920;SDS011;63483;47.384;8.860;2022-11-14T06:43:40;4.22;;;2.47;;
74920;SDS011;63483;47.384;8.860;2022-11-14T06:46:09;4.63;;;3.20;;
74920;SDS011;63483;47.384;8.860;2022-11-14T06:48:36;5.82;;;3.58;;
74920;SDS011;63483;47.384;8.860;2022-11-14T06:51:02;6.10;;;3.23;;
74920;SDS011;63483;47.384;8.860;2022-11-14T06:53:30;5.22;;;3.50;;
74920;SDS011;63483;47.384;8.860;2022-11-14T06:58:26;7.50;;;3.43;;
74920;SDS011;63483;47.384;8.860;2022-11-14T07:00:52;6.38;;;3.95;;
74920;SDS011;63483;47.384;8.860;2022-11-14T07:03:18;5.43;;;3.77;;
74920;SDS011;63483;47.384;8.860;2022-11-14T07:05:43;6.43;;;4.07;;
74920;SDS011;63483;47.384;8.860;2022-11-14T07:08:08;13.50;;;9.83;;
74920;SDS011;63483;47.384;8.860;2022-11-14T07:10:34;7.03;;;5.60;;
74920;SDS011;63483;47.384;8.860;2022-11-14T07:12:59;8.90;;;6.80;;
74920;SDS011;63483;47.384;8.860;2022-11-14T07:15:25;7.27;;;5.77;;
74920;SDS011;63483;47.384;8.860;2022-11-14T07:17:50;9.50;;;5.87;;
74920;SDS011;63483;47.384;8.860;2022-11-14T07:20:15;7.67;;;5.00;;
74920;SDS011;63483;47.384;8.860;2022-11-14T07:22:44;7.47;;;4.07;;
74920;SDS011;63483;47.384;8.860;2022-11-14T07:25:10;5.85;;;3.83;;
74920;SDS011;63483;47.384;8.860;2022-11-14T07:27:35;5.43;;;3.67;;
74920;SDS011;63483;47.384;8.860;2022-11-14T07:30:01;10.67;;;4.87;;
74920;SDS011;63483;47.384;8.860;2022-11-14T07:32:26;6.35;;;4.30;;
74920;SDS011;63483;47.384;8.860;2022-11-14T07:34:51;5.77;;;4.13;;
74920;SDS011;63483;47.384;8.860;2022-11-14T07:37:17;5.27;;;3.93;;
74920;SDS011;63483;47.384;8.860;2022-11-14T07:39:42;5.43;;;3.90;;
74920;SDS011;63483;47.384;8.860;2022-11-14T07:42:07;7.83;;;5.47;;
74920;SDS011;63483;47.384;8.860;2022-11-14T07:44:33;6.37;;;5.10;;
74920;SDS011;63483;47.384;8.860;2022-11-14T07:46:58;7.23;;;4.40;;
74920;SDS011;63483;47.384;8.860;2022-11-14T07:49:23;5.23;;;3.40;;
74920;SDS011;63483;47.384;8.860;2022-11-14T07:51:49;5.63;;;3.97;;
74920;SDS011;63483;47.384;8.860;2022-11-14T07:54:14;6.97;;;4.20;;
74920;SDS011;63483;47.384;8.860;2022-11-14T07:56:39;6.27;;;3.93;;
74920;SDS011;63483;47.384;8.860;2022-11-14T07:59:05;7.73;;;5.03;;
74920;SDS011;63483;47.384;8.860;2022-11-14T08:01:30;8.57;;;4.87;;
74920;SDS011;63483;47.384;8.860;2022-11-14T08:03:55;7.27;;;4.20;;
74920;SDS011;63483;47.384;8.860;2022-11-14T08:06:21;5.73;;;4.13;;
74920;SDS011;63483;47.384;8.860;2022-11-14T08:08:46;6.88;;;4.63;;
74920;SDS011;63483;47.384;8.860;2022-11-14T08:11:11;5.43;;;3.37;;
74920;SDS011;63483;47.384;8.860;2022-11-14T08:13:37;5.33;;;2.60;;
74920;SDS011;63483;47.384;8.860;2022-11-14T08:16:05;3.53;;;2.50;;
74920;SDS011;63483;47.384;8.860;2022-11-14T08:18:32;6.95;;;3.22;;
74920;SDS011;63483;47.384;8.860;2022-11-14T08:20:57;2.70;;;1.73;;
74920;SDS011;63483;47.384;8.860;2022-11-14T08:23:23;4.70;;;2.63;;
74920;SDS011;63483;47.384;8.860;2022-11-14T08:25:48;4.47;;;2.90;;
74920;SDS011;63483;47.384;8.860;2022-11-14T08:28:14;5.07;;;2.80;;
74920;SDS011;63483;47.384;8.860;2022-11-14T08:30:39;5.17;;;3.03;;
74920;SDS011;63483;47.384;8.860;2022-11-14T08:33:05;4.10;;;3.00;;
74920;SDS011;63483;47.384;8.860;2022-11-14T08:35:33;4.72;;;2.72;;
74920;SDS011;63483;47.384;8.860;2022-11-14T08:37:59;3.10;;;2.50;;
74920;SDS011;63483;47.384;8.860;2022-11-14T08:40:26;3.30;;;2.28;;
74920;SDS011;63483;47.384;8.860;2022-11-14T08:42:51;2.90;;;1.90;;
74920;SDS011;63483;47.384;8.860;2022-11-14T08:45:16;3.50;;;2.43;;
74920;SDS011;63483;47.384;8.860;2022-11-14T08:47:42;3.03;;;2.13;;
74920;SDS011;63483;47.384;8.860;2022-11-14T08:50:07;2.80;;;1.60;;
74920;SDS011;63483;47.384;8.860;2022-11-14T08:52:32;5.97;;;1.90;;
74920;SDS011;63483;47.384;8.860;2022-11-14T08:54:58;2.87;;;1.80;;
74920;SDS011;63483;47.384;8.860;2022-11-14T08:57:23;3.07;;;1.87;;
74920;SDS011;63483;47.384;8.860;2022-11-14T08:59:48;2.03;;;1.15;;
74920;SDS011;63483;47.384;8.860;2022-11-14T09:02:14;2.23;;;1.30;;
74920;SDS011;63483;47.384;8.860;2022-11-14T09:04:39;2.47;;;1.20;;
74920;SDS011;63483;47.384;8.860;2022-11-14T09:07:05;1.70;;;1.00;;
74920;SDS011;63483;47.384;8.860;2022-11-14T09:09:31;2.00;;;1.13;;
74920;SDS011;63483;47.384;8.860;2022-11-14T09:11:56;2.10;;;1.40;;
74920;SDS011;63483;47.384;8.860;2022-11-14T09:14:22;1.93;;;1.07;;
74920;SDS011;63483;47.384;8.860;2022-11-14T09:16:47;1.70;;;1.25;;
74920;SDS011;63483;47.384;8.860;2022-11-14T09:19:13;2.10;;;1.47;;
74920;SDS011;63483;47.384;8.860;2022-11-14T09:21:38;1.87;;;1.10;;
74920;SDS011;63483;47.384;8.860;2022-11-14T09:24:04;1.90;;;1.20;;
74920;SDS011;63483;47.384;8.860;2022-11-14T09:26:29;2.30;;;1.10;;
74920;SDS011;63483;47.384;8.860;2022-11-14T09:28:55;1.90;;;1.10;;
74920;SDS011;63483;47.384;8.860;2022-11-14T09:31:20;1.80;;;1.10;;
74920;SDS011;63483;47.384;8.860;2022-11-14T09:33:45;3.38;;;1.13;;
74920;SDS011;63483;47.384;8.860;2022-11-14T09:36:11;2.67;;;1.50;;
74920;SDS011;63483;47.384;8.860;2022-11-14T09:38:41;2.10;;;1.07;;
74920;SDS011;63483;47.384;8.860;2022-11-14T09:46:33;2.33;;;1.15;;
74920;SDS011;63483;47.384;8.860;2022-11-14T09:49:07;2.25;;;1.27;;
74920;SDS011;63483;47.384;8.860;2022-11-14T09:51:46;1.83;;;0.90;;
74920;SDS011;63483;47.384;8.860;2022-11-14T09:54:22;1.90;;;0.93;;
74920;SDS011;63483;47.384;8.860;2022-11-14T09:56:49;1.63;;;1.40;;
74920;SDS011;63483;47.384;8.860;2022-11-14T09:59:15;1.55;;;0.90;;
74920;SDS011;63483;47.384;8.860;2022-11-14T10:01:53;3.47;;;1.10;;
74920;SDS011;63483;47.384;8.860;2022-11-14T10:10:13;1.73;;;1.20;;
74920;SDS011;63483;47.384;8.860;2022-11-14T10:18:38;2.00;;;1.08;;
74920;SDS011;63483;47.384;8.860;2022-11-14T10:26:49;2.60;;;1.20;;
74920;SDS011;63483;47.384;8.860;2022-11-14T10:34:57;1.55;;;0.80;;
74920;SDS011;63483;47.384;8.860;2022-11-14T10:40:24;13.68;;;7.85;;
74920;SDS011;63483;47.384;8.860;2022-11-14T10:42:55;4.03;;;2.23;;
74920;SDS011;63483;47.384;8.860;2022-11-14T10:53:52;2.15;;;1.23;;
74920;SDS011;63483;47.384;8.860;2022-11-14T10:56:29;2.40;;;0.97;;
74920;SDS011;63483;47.384;8.860;2022-11-14T10:58:55;1.80;;;1.13;;
74920;SDS011;63483;47.384;8.860;2022-11-14T11:06:44;1.77;;;1.00;;
74920;SDS011;63483;47.384;8.860;2022-11-14T11:09:27;2.20;;;1.10;;
74920;SDS011;63483;47.384;8.860;2022-11-14T11:12:16;4.20;;;1.02;;
74920;SDS011;63483;47.384;8.860;2022-11-14T11:14:44;1.92;;;1.00;;
74920;SDS011;63483;47.384;8.860;2022-11-14T11:19:37;3.00;;;0.90;;
74920;SDS011;63483;47.384;8.860;2022-11-14T11:22:03;1.20;;;0.60;;
74920;SDS011;63483;47.384;8.860;2022-11-14T11:24:33;1.10;;;0.50;;
74920;SDS011;63483;47.384;8.860;2022-11-14T11:29:55;1.40;;;0.93;;
74920;SDS011;63483;47.384;8.860;2022-11-14T11:32:27;1.60;;;0.70;;
74920;SDS011;63483;47.384;8.860;2022-11-14T11:34:53;1.98;;;0.70;;
74920;SDS011;63483;47.384;8.860;2022-11-14T11:37:20;2.80;;;1.10;;
74920;SDS011;63483;47.384;8.860;2022-11-14T11:39:55;1.92;;;1.05;;
74920;SDS011;63483;47.384;8.860;2022-11-14T11:42:32;1.60;;;1.23;;
74920;SDS011;63483;47.384;8.860;2022-11-14T11:45:03;1.92;;;1.17;;
74920;SDS011;63483;47.384;8.860;2022-11-14T11:47:33;2.55;;;1.50;;
74920;SDS011;63483;47.384;8.860;2022-11-14T11:50:00;3.10;;;2.20;;
74920;SDS011;63483;47.384;8.860;2022-11-14T11:57:33;2.43;;;1.33;;
74920;SDS011;63483;47.384;8.860;2022-11-14T12:00:05;2.53;;;1.10;;
74920;SDS011;63483;47.384;8.860;2022-11-14T12:02:40;1.50;;;1.05;;
74920;SDS011;63483;47.384;8.860;2022-11-14T12:05:12;1.63;;;1.00;;
74920;SDS011;63483;47.384;8.860;2022-11-14T12:07:51;1.60;;;1.07;;
74920;SDS011;63483;47.384;8.860;2022-11-14T12:10:27;1.58;;;1.08;;
74920;SDS011;63483;47.384;8.860;2022-11-14T12:27:12;1.60;;;1.08;;
74920;SDS011;63483;47.384;8.860;2022-11-14T12:29:54;2.03;;;1.20;;
74920;SDS011;63483;47.384;8.860;2022-11-14T12:32:35;1.92;;;1.45;;
74920;SDS011;63483;47.384;8.860;2022-11-14T12:35:06;1.37;;;0.90;;
74920;SDS011;63483;47.384;8.860;2022-11-14T12:37:42;1.40;;;0.90;;
74920;SDS011;63483;47.384;8.860;2022-11-14T12:40:17;2.45;;;1.35;;
74920;SDS011;63483;47.384;8.860;2022-11-14T12:43:03;1.60;;;1.08;;
74920;SDS011;63483;47.384;8.860;2022-11-14T12:50:55;1.70;;;0.70;;
74920;SDS011;63483;47.384;8.860;2022-11-14T13:07:28;2.38;;;1.00;;
74920;SDS011;63483;47.384;8.860;2022-11-14T13:12:37;1.60;;;1.13;;
74920;SDS011;63483;47.384;8.860;2022-11-14T13:15:27;1.65;;;1.27;;
74920;SDS011;63483;47.384;8.860;2022-11-14T13:18:30;2.30;;;1.20;;
74920;SDS011;63483;47.384;8.860;2022-11-14T13:24:09;2.38;;;1.30;;
74920;SDS011;63483;47.384;8.860;2022-11-14T13:26:36;3.00;;;1.73;;
74920;SDS011;63483;47.384;8.860;2022-11-14T13:29:03;2.20;;;1.15;;
74920;SDS011;63483;47.384;8.860;2022-11-14T13:33:59;4.15;;;1.50;;
74920;SDS011;63483;47.384;8.860;2022-11-14T13:37:08;2.22;;;1.25;;
74920;SDS011;63483;47.384;8.860;2022-11-14T13:39:38;1.90;;;1.40;;
74920;SDS011;63483;47.384;8.860;2022-11-14T13:50:32;1.77;;;1.27;;
74920;SDS011;63483;47.384;8.860;2022-11-14T13:53:13;1.83;;;1.20;;
74920;SDS011;63483;47.384;8.860;2022-11-14T14:06:30;1.83;;;1.23;;
74920;SDS011;63483;47.384;8.860;2022-11-14T14:09:03;2.50;;;1.48;;
74920;SDS011;63483;47.384;8.860;2022-11-14T14:16:59;1.67;;;1.08;;
74920;SDS011;63483;47.384;8.860;2022-11-14T14:19:45;2.50;;;1.30;;
74920;SDS011;63483;47.384;8.860;2022-11-14T14:25:50;3.05;;;1.48;;
74920;SDS011;63483;47.384;8.860;2022-11-14T14:31:34;2.20;;;1.40;;
74920;SDS011;63483;47.384;8.860;2022-11-14T14:33:49;1.60;;;1.00;;
74920;SDS011;63483;47.384;8.860;2022-11-14T14:36:16;2.03;;;1.33;;
74920;SDS011;63483;47.384;8.860;2022-11-14T14:38:47;2.25;;;1.38;;
74920;SDS011;63483;47.384;8.860;2022-11-14T14:41:15;3.05;;;1.30;;
74920;SDS011;63483;47.384;8.860;2022-11-14T14:43:53;2.92;;;1.40;;
74920;SDS011;63483;47.384;8.860;2022-11-14T14:46:29;2.50;;;1.20;;
74920;SDS011;63483;47.384;8.860;2022-11-14T14:48:56;2.72;;;1.40;;
74920;SDS011;63483;47.384;8.860;2022-11-14T14:51:32;1.67;;;1.02;;
74920;SDS011;63483;47.384;8.860;2022-11-14T14:53:59;2.30;;;1.27;;
74920;SDS011;63483;47.384;8.860;2022-11-14T14:56:26;1.50;;;1.30;;
74920;SDS011;63483;47.384;8.860;2022-11-14T14:58:52;1.53;;;1.13;;
74920;SDS011;63483;47.384;8.860;2022-11-14T15:01:36;2.88;;;0.90;;
74920;SDS011;63483;47.384;8.860;2022-11-14T15:08:56;2.40;;;1.38;;
74920;SDS011;63483;47.384;8.860;2022-11-14T15:11:24;4.22;;;1.15;;
74920;SDS011;63483;47.384;8.860;2022-11-14T15:13:51;1.67;;;1.03;;
74920;SDS011;63483;47.384;8.860;2022-11-14T15:16:20;2.03;;;1.00;;
74920;SDS011;63483;47.384;8.860;2022-11-14T15:18:46;1.83;;;1.20;;
74920;SDS011;63483;47.384;8.860;2022-11-14T15:23:56;1.90;;;1.30;;
74920;SDS011;63483;47.384;8.860;2022-11-14T15:26:22;3.40;;;1.30;;
74920;SDS011;63483;47.384;8.860;2022-11-14T15:28:48;2.63;;;1.90;;
74920;SDS011;63483;47.384;8.860;2022-11-14T15:31:19;1.73;;;1.00;;
74920;SDS011;63483;47.384;8.860;2022-11-14T15:34:20;2.50;;;1.23;;
74920;SDS011;63483;47.384;8.860;2022-11-14T15:39:43;1.50;;;1.15;;
74920;SDS011;63483;47.384;8.860;2022-11-14T15:44:39;3.28;;;0.93;;
74920;SDS011;63483;47.384;8.860;2022-11-14T15:47:11;4.03;;;1.65;;
74920;SDS011;63483;47.384;8.860;2022-11-14T15:49:48;3.22;;;1.75;;
74920;SDS011;63483;47.384;8.860;2022-11-14T15:52:31;6.88;;;2.78;;
74920;SDS011;63483;47.384;8.860;2022-11-14T15:55:00;3.47;;;2.10;;
74920;SDS011;63483;47.384;8.860;2022-11-14T15:57:26;2.83;;;1.60;;
74920;SDS011;63483;47.384;8.860;2022-11-14T15:59:51;2.53;;;1.40;;
74920;SDS011;63483;47.384;8.860;2022-11-14T16:02:18;1.97;;;1.10;;
74920;SDS011;63483;47.384;8.860;2022-11-14T16:04:46;2.38;;;1.55;;
74920;SDS011;63483;47.384;8.860;2022-11-14T16:07:14;3.08;;;1.90;;
74920;SDS011;63483;47.384;8.860;2022-11-14T16:09:41;2.33;;;1.55;;
74920;SDS011;63483;47.384;8.860;2022-11-14T16:12:06;2.43;;;1.27;;
74920;SDS011;63483;47.384;8.860;2022-11-14T16:14:32;3.20;;;1.80;;
74920;SDS011;63483;47.384;8.860;2022-11-14T16:16:58;4.63;;;1.50;;
74920;SDS011;63483;47.384;8.860;2022-11-14T16:19:23;2.77;;;1.30;;
74920;SDS011;63483;47.384;8.860;2022-11-14T16:21:48;1.93;;;1.17;;
74920;SDS011;63483;47.384;8.860;2022-11-14T16:24:15;1.77;;;0.90;;
74920;SDS011;63483;47.384;8.860;2022-11-14T16:26:46;3.88;;;1.20;;
74920;SDS011;63483;47.384;8.860;2022-11-14T16:29:12;1.65;;;1.15;;
74920;SDS011;63483;47.384;8.860;2022-11-14T16:31:38;2.25;;;1.23;;
74920;SDS011;63483;47.384;8.860;2022-11-14T16:34:03;3.63;;;0.77;;
74920;SDS011;63483;47.384;8.860;2022-11-14T16:36:30;2.70;;;1.80;;
74920;SDS011;63483;47.384;8.860;2022-11-14T16:38:57;2.45;;;1.35;;
74920;SDS011;63483;47.384;8.860;2022-11-14T16:41:25;2.33;;;1.30;;
74920;SDS011;63483;47.384;8.860;2022-11-14T16:43:54;2.80;;;1.48;;
74920;SDS011;63483;47.384;8.860;2022-11-14T16:46:20;4.18;;;1.60;;
74920;SDS011;63483;47.384;8.860;2022-11-14T16:48:46;4.87;;;2.07;;
74920;SDS011;63483;47.384;8.860;2022-11-14T16:51:11;4.70;;;1.83;;
74920;SDS011;63483;47.384;8.860;2022-11-14T16:53:37;3.80;;;1.73;;
74920;SDS011;63483;47.384;8.860;2022-11-14T16:56:03;4.17;;;2.07;;
74920;SDS011;63483;47.384;8.860;2022-11-14T16:58:28;5.77;;;1.53;;
74920;SDS011;63483;47.384;8.860;2022-11-14T17:00:53;4.97;;;1.50;;
74920;SDS011;63483;47.384;8.860;2022-11-14T17:03:19;6.27;;;2.07;;
74920;SDS011;63483;47.384;8.860;2022-11-14T17:05:45;15.57;;;7.50;;
74920;SDS011;63483;47.384;8.860;2022-11-14T17:08:15;17.85;;;9.55;;
74920;SDS011;63483;47.384;8.860;2022-11-14T17:10:41;5.95;;;3.08;;
74920;SDS011;63483;47.384;8.860;2022-11-14T17:13:08;4.30;;;2.35;;
74920;SDS011;63483;47.384;8.860;2022-11-14T17:15:34;5.07;;;2.40;;
74920;SDS011;63483;47.384;8.860;2022-11-14T17:17:59;5.03;;;2.00;;